Terminal Aerodrome Forecast
Issued by NWS

Home | Current Version | Previous Version | Text Only | Print | Product List | Glossary On
Versions: 1 2 3 4 5 6 7 8 9 10 11 12 13 14 15 16 17 18 19 20
000
FTUS43 KAPX 202333
TAFAPN
TAF
KAPN 202333Z 2100/2124 28009KT P6SM -SHSN BKN035
     FM210600 26005KT P6SM VCSH BKN040
     FM211600 22008KT P6SM SCT040=

USA.gov is the U.S. government's official web portal to all federal, state and local government web resources and services.